createdAt,value
2016-09-25T00:00:10.451Z,50.12
2016-09-25T00:00:51.175Z,50.09
2016-09-25T00:01:31.878Z,50.02
2016-09-25T00:02:12.664Z,50.02
2016-09-25T00:02:53.387Z,49.99
2016-09-25T00:03:34.161Z,49.92
2016-09-25T00:04:14.915Z,50.02
2016-09-25T00:04:55.631Z,49.92
2016-09-25T00:05:36.377Z,49.9
2016-09-25T00:06:17.141Z,49.92
2016-09-25T00:06:57.911Z,50.02
2016-09-25T00:07:38.659Z,50.12
2016-09-25T00:08:19.420Z,50.02
2016-09-25T00:09:00.191Z,50.02
2016-09-25T00:09:40.933Z,50.02
2016-09-25T00:10:21.717Z,49.73
2016-09-25T00:11:02.488Z,49.51
2016-09-25T00:11:43.225Z,49.73
2016-09-25T00:12:23.989Z,49.9
2016-09-25T00:13:04.697Z,49.9
2016-09-25T00:13:45.442Z,49.92
2016-09-25T00:14:26.161Z,49.8
2016-09-25T00:15:06.885Z,49.8
2016-09-25T00:15:47.598Z,49.82
2016-09-25T00:16:28.304Z,49.73
2016-09-25T00:17:09.039Z,49.73
2016-09-25T00:17:49.812Z,49.82
2016-09-25T00:18:30.551Z,49.9
2016-09-25T00:19:11.220Z,49.63
2016-09-25T00:19:51.998Z,49.44
2016-09-25T00:20:32.786Z,49.63
2016-09-25T00:21:13.550Z,49.54
2016-09-25T00:21:54.349Z,49.63
2016-09-25T00:22:35.083Z,49.73
2016-09-25T00:23:15.751Z,49.44
2016-09-25T00:23:56.488Z,49.54
2016-09-25T00:24:37.223Z,49.41
2016-09-25T00:25:17.983Z,49.44
2016-09-25T00:25:58.741Z,49.63
2016-09-25T00:26:39.481Z,49.61
2016-09-25T00:27:20.185Z,49.71
2016-09-25T00:28:00.932Z,49.82
2016-09-25T00:28:41.677Z,49.63
2016-09-25T00:29:22.442Z,49.71
2016-09-25T00:30:03.181Z,49.54
2016-09-25T00:30:43.863Z,49.54
2016-09-25T00:31:24.560Z,49.61
2016-09-25T00:32:05.324Z,49.63
2016-09-25T00:32:46.109Z,49.51
2016-09-25T00:33:26.801Z,49.44
2016-09-25T00:34:07.562Z,49.92
2016-09-25T00:34:48.306Z,49.73
2016-09-25T00:35:29.032Z,49.82
2016-09-25T00:36:09.826Z,50.02
2016-09-25T00:36:50.601Z,49.92
2016-09-25T00:37:31.312Z,50.02
2016-09-25T00:38:12.017Z,49.82
2016-09-25T00:38:52.723Z,49.8
2016-09-25T00:39:33.457Z,49.9
2016-09-25T00:40:14.284Z,49.63
2016-09-25T00:40:55.079Z,49.73
2016-09-25T00:41:35.765Z,49.82
2016-09-25T00:42:16.504Z,50.29
2016-09-25T00:42:57.263Z,49.82
2016-09-25T00:43:38.006Z,50.12
2016-09-25T00:44:18.784Z,50.02
2016-09-25T00:44:59.541Z,50.09
2016-09-25T00:45:40.234Z,49.9
2016-09-25T00:46:21.006Z,49.9
2016-09-25T00:47:01.748Z,49.92
2016-09-25T00:47:42.440Z,49.9
2016-09-25T00:48:23.175Z,50.19
2016-09-25T00:49:03.870Z,50.09
2016-09-25T00:49:44.589Z,50.29
2016-09-25T00:50:25.353Z,50.12
2016-09-25T00:51:06.079Z,50.38
2016-09-25T00:51:46.801Z,50.21
2016-09-25T00:52:27.541Z,49.99
2016-09-25T00:53:08.314Z,49.99
2016-09-25T00:53:49.102Z,50.19
2016-09-25T00:54:29.933Z,50.12
2016-09-25T00:55:10.945Z,50.09
2016-09-25T00:55:51.743Z,50.02
2016-09-25T00:56:32.469Z,50.09
2016-09-25T00:57:13.262Z,50.29
2016-09-25T00:57:53.972Z,50.38
2016-09-25T00:58:34.705Z,50.19
2016-09-25T00:59:15.419Z,50.29
2016-09-25T00:59:56.136Z,50.09
2016-09-25T01:00:36.840Z,50.09
2016-09-25T01:01:17.600Z,50.19
2016-09-25T01:01:58.414Z,50.19
2016-09-25T01:02:39.125Z,50.38
2016-09-25T01:03:19.888Z,50.29
2016-09-25T01:04:00.600Z,50.09
2016-09-25T01:04:41.341Z,50.48
2016-09-25T01:05:22.138Z,50.19
2016-09-25T01:06:02.949Z,50.19
2016-09-25T01:06:43.702Z,50.48
2016-09-25T01:07:24.416Z,50.12
2016-09-25T01:08:05.174Z,50.19
2016-09-25T01:08:45.990Z,50.38
2016-09-25T01:09:26.650Z,50.21
2016-09-25T01:10:07.401Z,50.31
2016-09-25T01:10:48.155Z,50.29
2016-09-25T01:11:28.921Z,50.12
2016-09-25T01:12:09.714Z,50.09
2016-09-25T01:12:50.467Z,50.29
2016-09-25T01:13:31.237Z,50.48
2016-09-25T01:14:11.936Z,50.48
2016-09-25T01:14:52.619Z,50.38
2016-09-25T01:15:33.358Z,50.51
2016-09-25T01:16:14.079Z,50.19
2016-09-25T01:16:54.830Z,50.48
2016-09-25T01:17:35.574Z,50.19
2016-09-25T01:18:16.307Z,50.31
2016-09-25T01:18:57.075Z,50.48
2016-09-25T01:19:37.841Z,50.6
2016-09-25T01:20:18.614Z,50.58
2016-09-25T01:20:59.608Z,50.21
2016-09-25T01:21:40.329Z,50.51
2016-09-25T01:22:21.053Z,50.58
2016-09-25T01:23:01.832Z,50.58
2016-09-25T01:23:42.621Z,50.58
2016-09-25T01:24:23.295Z,50.6
2016-09-25T01:25:04.068Z,50.58
2016-09-25T01:25:44.796Z,50.58
2016-09-25T01:26:25.592Z,50.68
2016-09-25T01:27:06.300Z,50.58
2016-09-25T01:27:47.028Z,50.58
2016-09-25T01:28:27.762Z,50.68
2016-09-25T01:29:08.506Z,50.58
2016-09-25T01:29:49.217Z,50.58
2016-09-25T01:30:29.969Z,50.48
2016-09-25T01:31:10.685Z,50.58
2016-09-25T01:31:51.425Z,50.48
2016-09-25T01:32:32.151Z,50.48
2016-09-25T01:33:12.875Z,50.29
2016-09-25T01:33:53.546Z,50.38
2016-09-25T01:34:34.238Z,50.29
2016-09-25T01:35:15.074Z,50.38
2016-09-25T01:35:55.782Z,50.48
2016-09-25T01:36:36.529Z,50.58
2016-09-25T01:37:17.272Z,50.58
2016-09-25T01:37:58.045Z,50.58
2016-09-25T01:38:38.757Z,50.29
2016-09-25T01:39:19.465Z,50.29
2016-09-25T01:40:00.274Z,50.09
2016-09-25T01:40:41.237Z,50.48
2016-09-25T01:41:22.064Z,50.38
2016-09-25T01:42:03.065Z,50.48
2016-09-25T01:42:43.761Z,50.38
2016-09-25T01:43:24.553Z,50.38
2016-09-25T01:44:05.352Z,50.09
2016-09-25T01:44:46.041Z,50.38
2016-09-25T01:45:26.728Z,50.38
2016-09-25T01:46:07.496Z,50.38
2016-09-25T01:46:48.286Z,50.29
2016-09-25T01:47:28.994Z,50.38
2016-09-25T01:48:09.774Z,50.29
2016-09-25T01:48:50.481Z,50.38
2016-09-25T01:49:31.214Z,50.38
2016-09-25T01:50:11.972Z,50.19
2016-09-25T01:50:52.673Z,50.38
2016-09-25T01:51:33.409Z,50.38
2016-09-25T01:52:14.131Z,50.29
2016-09-25T01:52:54.835Z,50.38
2016-09-25T01:53:35.560Z,50.29
2016-09-25T01:54:16.264Z,50.38
2016-09-25T01:54:57.005Z,50.77
2016-09-25T01:55:38.072Z,50.58
2016-09-25T01:56:18.792Z,50.58
2016-09-25T01:56:59.507Z,50.58
2016-09-25T01:57:40.252Z,50.58
2016-09-25T01:58:21.021Z,50.77
2016-09-25T01:59:01.761Z,50.48
2016-09-25T01:59:42.517Z,50.58
2016-09-25T02:00:23.393Z,50.58
2016-09-25T02:01:04.093Z,50.58
2016-09-25T02:01:44.820Z,50.68
2016-09-25T02:02:25.593Z,50.58
2016-09-25T02:03:06.324Z,50.58
2016-09-25T02:03:47.083Z,50.58
2016-09-25T02:04:27.776Z,50.58
2016-09-25T02:05:08.505Z,50.77
2016-09-25T02:05:49.282Z,50.77
2016-09-25T02:06:30.017Z,50.58
2016-09-25T02:07:10.707Z,50.77
2016-09-25T02:07:51.472Z,50.48
2016-09-25T02:08:32.189Z,50.77
2016-09-25T02:09:12.993Z,50.58
2016-09-25T02:09:53.796Z,50.58
2016-09-25T02:10:34.553Z,50.48
2016-09-25T02:11:15.306Z,50.58
2016-09-25T02:11:56.107Z,50.77
2016-09-25T02:12:36.832Z,50.58
2016-09-25T02:13:17.630Z,50.58
2016-09-25T02:13:58.368Z,50.48
2016-09-25T02:14:39.123Z,50.58
2016-09-25T02:15:19.872Z,50.77
2016-09-25T02:16:00.600Z,50.48
2016-09-25T02:16:41.258Z,50.68
2016-09-25T02:17:21.951Z,50.68
2016-09-25T02:18:02.642Z,50.68
2016-09-25T02:18:43.385Z,50.68
2016-09-25T02:19:24.127Z,50.48
2016-09-25T02:20:04.917Z,50.68
2016-09-25T02:20:45.615Z,50.68
2016-09-25T02:21:26.355Z,50.58
2016-09-25T02:22:07.070Z,50.87
2016-09-25T02:22:47.826Z,50.58
2016-09-25T02:23:28.522Z,50.87
2016-09-25T02:24:09.303Z,50.77
2016-09-25T02:24:50.053Z,50.58
2016-09-25T02:25:30.786Z,50.58
2016-09-25T02:26:11.517Z,50.58
2016-09-25T02:26:52.218Z,50.48
2016-09-25T02:27:32.952Z,50.48
2016-09-25T02:28:13.701Z,50.68
2016-09-25T02:28:54.411Z,50.38
2016-09-25T02:29:35.110Z,50.87
2016-09-25T02:30:15.853Z,50.77
2016-09-25T02:30:56.525Z,50.68
2016-09-25T02:31:37.263Z,50.87
2016-09-25T02:32:17.990Z,50.96
2016-09-25T02:32:58.795Z,50.48
2016-09-25T02:33:39.557Z,50.87
2016-09-25T02:34:20.341Z,50.68
2016-09-25T02:35:01.105Z,50.96
2016-09-25T02:35:41.881Z,50.48
2016-09-25T02:36:22.635Z,50.68
2016-09-25T02:37:03.385Z,50.87
2016-09-25T02:37:44.115Z,50.58
2016-09-25T02:38:24.834Z,50.48
2016-09-25T02:39:05.542Z,50.68
2016-09-25T02:39:46.284Z,50.68
2016-09-25T02:40:27.083Z,50.87
2016-09-25T02:41:07.811Z,50.68
2016-09-25T02:41:48.544Z,50.68
2016-09-25T02:42:29.237Z,50.58
2016-09-25T02:43:10.017Z,50.58
2016-09-25T02:43:50.800Z,50.58
2016-09-25T02:44:31.622Z,50.48
2016-09-25T02:45:12.332Z,50.68
2016-09-25T02:45:53.023Z,50.77
2016-09-25T02:46:33.781Z,50.96
2016-09-25T02:47:14.495Z,50.77
2016-09-25T02:47:55.277Z,50.58
2016-09-25T02:48:36.026Z,50.87
2016-09-25T02:49:16.760Z,50.58
2016-09-25T02:49:57.450Z,50.58
2016-09-25T02:50:38.174Z,50.77
2016-09-25T02:51:18.936Z,50.77
2016-09-25T02:51:59.732Z,50.68
2016-09-25T02:52:40.469Z,50.87
2016-09-25T02:53:21.254Z,50.87
2016-09-25T02:54:02.054Z,50.77
2016-09-25T02:54:42.801Z,50.87
2016-09-25T02:55:23.558Z,50.77
2016-09-25T02:56:04.292Z,50.68
2016-09-25T02:56:44.974Z,50.58
2016-09-25T02:57:25.650Z,51.16
2016-09-25T02:58:06.348Z,50.87
2016-09-25T02:58:47.151Z,50.96
2016-09-25T02:59:27.899Z,50.96
2016-09-25T03:00:08.632Z,50.96
2016-09-25T03:00:49.355Z,51.06
2016-09-25T03:01:30.082Z,51.16
2016-09-25T03:02:10.857Z,51.16
2016-09-25T03:02:51.649Z,51.16
2016-09-25T03:03:32.338Z,50.96
2016-09-25T03:04:13.113Z,50.96
2016-09-25T03:04:53.839Z,50.87
2016-09-25T03:05:34.555Z,50.87
2016-09-25T03:06:15.278Z,51.16
2016-09-25T03:06:56.091Z,51.26
2016-09-25T03:07:36.801Z,51.06
2016-09-25T03:08:17.540Z,51.06
2016-09-25T03:08:58.266Z,51.35
2016-09-25T03:09:38.971Z,51.26
2016-09-25T03:10:19.758Z,51.26
2016-09-25T03:11:00.434Z,50.96
2016-09-25T03:11:41.216Z,51.06
2016-09-25T03:12:21.948Z,50.96
2016-09-25T03:13:02.717Z,51.16
2016-09-25T03:13:43.449Z,50.87
2016-09-25T03:14:24.194Z,50.96
2016-09-25T03:15:04.933Z,51.06
2016-09-25T03:15:45.613Z,51.16
2016-09-25T03:16:26.350Z,51.26
2016-09-25T03:17:07.126Z,51.16
2016-09-25T03:17:47.851Z,51.06
2016-09-25T03:18:28.565Z,50.96
2016-09-25T03:19:09.326Z,51.06
2016-09-25T03:19:50.058Z,51.35
2016-09-25T03:20:30.773Z,51.35
2016-09-25T03:21:11.575Z,50.96
2016-09-25T03:21:52.325Z,51.16
2016-09-25T03:22:33.045Z,51.16
2016-09-25T03:23:13.805Z,51.16
2016-09-25T03:23:54.527Z,50.96
2016-09-25T03:24:35.265Z,51.06
2016-09-25T03:25:15.974Z,51.06
2016-09-25T03:25:56.716Z,50.87
2016-09-25T03:26:37.401Z,51.16
2016-09-25T03:27:18.169Z,51.06
2016-09-25T03:27:58.944Z,51.16
2016-09-25T03:28:39.662Z,51.16
2016-09-25T03:29:20.395Z,51.06
2016-09-25T03:30:01.154Z,50.96
2016-09-25T03:30:41.903Z,51.16
2016-09-25T03:31:22.653Z,51.16
2016-09-25T03:32:03.461Z,51.45
2016-09-25T03:32:44.197Z,50.96
2016-09-25T03:33:24.892Z,51.16
2016-09-25T03:34:05.556Z,51.06
2016-09-25T03:34:46.244Z,51.55
2016-09-25T03:35:27.098Z,51.55
2016-09-25T03:36:07.853Z,51.55
2016-09-25T03:36:48.601Z,51.35
2016-09-25T03:37:29.398Z,50.96
2016-09-25T03:38:10.148Z,51.65
2016-09-25T03:38:50.877Z,51.65
2016-09-25T03:39:31.608Z,51.16
2016-09-25T03:40:12.350Z,51.55
2016-09-25T03:40:53.059Z,51.16
2016-09-25T03:41:33.827Z,51.35
2016-09-25T03:42:14.541Z,51.06
2016-09-25T03:42:55.269Z,51.16
2016-09-25T03:43:36.057Z,50.96
2016-09-25T03:44:16.736Z,51.16
2016-09-25T03:44:57.448Z,51.65
2016-09-25T03:45:38.181Z,51.55
2016-09-25T03:46:18.875Z,51.16
2016-09-25T03:46:59.611Z,51.16
2016-09-25T03:47:40.393Z,51.16
2016-09-25T03:48:21.161Z,50.96
2016-09-25T03:49:01.893Z,50.68
2016-09-25T03:49:42.629Z,51.55
2016-09-25T03:50:23.370Z,51.55
2016-09-25T03:51:04.137Z,51.16
2016-09-25T03:51:44.829Z,51.35
2016-09-25T03:52:25.621Z,51.26
2016-09-25T03:53:06.350Z,51.45
2016-09-25T03:53:47.082Z,51.45
2016-09-25T03:54:27.819Z,51.45
2016-09-25T03:55:08.515Z,50.58
2016-09-25T03:55:49.220Z,51.55
2016-09-25T03:56:29.952Z,50.96
2016-09-25T03:57:10.721Z,51.06
2016-09-25T03:57:51.396Z,51.06
2016-09-25T03:58:32.165Z,51.55
2016-09-25T03:59:12.931Z,50.96
2016-09-25T03:59:53.703Z,51.55
2016-09-25T04:00:34.585Z,51.35
2016-09-25T04:01:15.357Z,51.55
2016-09-25T04:01:56.083Z,51.45
2016-09-25T04:02:36.859Z,51.45
2016-09-25T04:03:17.613Z,51.55
2016-09-25T04:03:58.359Z,51.45
2016-09-25T04:04:39.165Z,51.35
2016-09-25T04:05:19.881Z,51.45
2016-09-25T04:06:00.634Z,51.55
2016-09-25T04:06:41.301Z,51.35
2016-09-25T04:07:22.047Z,51.35
2016-09-25T04:08:02.744Z,51.45
2016-09-25T04:08:43.484Z,51.65
2016-09-25T04:09:24.283Z,51.45
2016-09-25T04:10:05.047Z,51.55
2016-09-25T04:10:45.784Z,51.45
2016-09-25T04:11:26.554Z,51.45
2016-09-25T04:12:07.328Z,51.45
2016-09-25T04:12:48.092Z,51.35
2016-09-25T04:13:28.813Z,51.35
2016-09-25T04:14:09.608Z,50.77
2016-09-25T04:14:50.315Z,51.16
2016-09-25T04:15:31.045Z,51.55
2016-09-25T04:16:11.865Z,51.45
2016-09-25T04:16:52.652Z,51.35
2016-09-25T04:17:33.318Z,51.45
2016-09-25T04:18:14.108Z,51.35
2016-09-25T04:18:54.847Z,51.35
2016-09-25T04:19:35.577Z,51.45
2016-09-25T04:20:16.324Z,51.26
2016-09-25T04:20:57.108Z,51.26
2016-09-25T04:21:37.870Z,51.16
2016-09-25T04:22:18.591Z,51.06
2016-09-25T04:22:59.321Z,51.16
2016-09-25T04:23:40.080Z,51.35
2016-09-25T04:24:20.807Z,51.26
2016-09-25T04:25:01.582Z,51.16
2016-09-25T04:25:42.307Z,51.26
2016-09-25T04:26:23.013Z,51.16
2016-09-25T04:27:03.703Z,51.16
2016-09-25T04:27:44.426Z,51.16
2016-09-25T04:28:25.175Z,51.16
2016-09-25T04:29:05.914Z,51.35
2016-09-25T04:29:46.659Z,51.16
2016-09-25T04:30:27.417Z,51.16
2016-09-25T04:31:08.266Z,51.35
2016-09-25T04:31:49.023Z,51.16
2016-09-25T04:32:29.951Z,51.26
2016-09-25T04:33:10.695Z,51.16
2016-09-25T04:33:51.417Z,51.65
2016-09-25T04:34:32.173Z,51.16
2016-09-25T04:35:13.001Z,51.26
2016-09-25T04:35:53.718Z,51.06
2016-09-25T04:36:34.481Z,51.16
2016-09-25T04:37:15.244Z,51.16
2016-09-25T04:37:55.965Z,51.26
2016-09-25T04:38:36.708Z,51.26
2016-09-25T04:39:17.570Z,51.16
2016-09-25T04:39:58.340Z,51.45
2016-09-25T04:40:39.072Z,51.06
2016-09-25T04:41:19.779Z,51.35
2016-09-25T04:42:00.481Z,51.26
2016-09-25T04:42:41.239Z,51.16
2016-09-25T04:43:21.987Z,51.35
2016-09-25T04:44:02.751Z,51.45
2016-09-25T04:44:43.480Z,51.75
2016-09-25T04:45:24.232Z,51.16
2016-09-25T04:46:04.967Z,51.06
2016-09-25T04:46:45.656Z,51.35
2016-09-25T04:47:26.386Z,51.26
2016-09-25T04:48:07.239Z,51.16
2016-09-25T04:48:47.970Z,51.55
2016-09-25T04:49:28.708Z,51.45
2016-09-25T04:50:09.470Z,51.55
2016-09-25T04:50:50.210Z,51.65
2016-09-25T04:51:30.969Z,51.55
2016-09-25T04:52:11.739Z,51.16
2016-09-25T04:52:52.524Z,51.45
2016-09-25T04:53:33.278Z,51.55
2016-09-25T04:54:13.993Z,51.45
2016-09-25T04:54:54.708Z,51.16
2016-09-25T04:55:35.496Z,51.06
2016-09-25T04:56:16.288Z,51.45
2016-09-25T04:56:56.993Z,51.16
2016-09-25T04:57:37.833Z,51.65
2016-09-25T04:58:18.551Z,50.96
2016-09-25T04:58:59.289Z,51.16
2016-09-25T04:59:40.015Z,51.55
2016-09-25T05:00:20.782Z,51.16
2016-09-25T05:01:01.525Z,51.45
2016-09-25T05:01:42.202Z,51.55
2016-09-25T05:02:22.889Z,51.55
2016-09-25T05:03:03.619Z,51.16
2016-09-25T05:03:44.357Z,50.96
2016-09-25T05:04:25.114Z,50.96
2016-09-25T05:05:05.833Z,51.26
2016-09-25T05:05:46.577Z,51.55
2016-09-25T05:06:27.268Z,51.65
2016-09-25T05:07:08.034Z,51.55
2016-09-25T05:07:48.789Z,51.55
2016-09-25T05:08:29.540Z,51.45
2016-09-25T05:09:10.268Z,51.65
2016-09-25T05:09:51.026Z,51.35
2016-09-25T05:10:31.715Z,51.16
2016-09-25T05:11:12.423Z,51.16
2016-09-25T05:11:53.108Z,51.16
2016-09-25T05:12:33.862Z,51.55
2016-09-25T05:13:14.578Z,51.65
2016-09-25T05:13:55.323Z,51.55
2016-09-25T05:14:36.126Z,51.65
2016-09-25T05:15:16.892Z,51.55
2016-09-25T05:15:57.656Z,51.55
2016-09-25T05:16:38.442Z,51.65
2016-09-25T05:17:19.169Z,51.45
2016-09-25T05:17:59.949Z,51.45
2016-09-25T05:18:40.743Z,51.45
2016-09-25T05:19:21.465Z,51.55
2016-09-25T05:20:02.215Z,51.55
2016-09-25T05:20:42.911Z,51.35
2016-09-25T05:21:23.695Z,51.45
2016-09-25T05:22:04.463Z,51.55
2016-09-25T05:22:45.173Z,51.65
2016-09-25T05:23:25.874Z,51.55
2016-09-25T05:24:06.609Z,51.45
2016-09-25T05:24:47.371Z,51.06
2016-09-25T05:25:28.113Z,50.96
2016-09-25T05:26:08.848Z,51.55
2016-09-25T05:26:49.537Z,51.55
2016-09-25T05:27:30.246Z,51.65
2016-09-25T05:28:11.039Z,51.45
2016-09-25T05:28:51.828Z,51.55
2016-09-25T05:29:32.514Z,51.55
2016-09-25T05:30:13.302Z,51.55
2016-09-25T05:30:54.089Z,51.55
2016-09-25T05:31:34.791Z,51.55
2016-09-25T05:32:15.580Z,51.45
2016-09-25T05:32:56.258Z,51.55
2016-09-25T05:33:37.004Z,51.06
2016-09-25T05:34:17.754Z,51.35
2016-09-25T05:34:58.524Z,51.35
2016-09-25T05:35:39.255Z,51.45
2016-09-25T05:36:20.009Z,51.45
2016-09-25T05:37:00.794Z,51.45
2016-09-25T05:37:41.518Z,51.35
2016-09-25T05:38:22.263Z,51.45
2016-09-25T05:39:03.068Z,51.45
2016-09-25T05:39:43.778Z,51.16
2016-09-25T05:40:24.513Z,51.55
2016-09-25T05:41:05.272Z,51.45
2016-09-25T05:41:46.013Z,51.26
2016-09-25T05:42:26.846Z,51.06
2016-09-25T05:43:07.567Z,51.55
2016-09-25T05:43:48.274Z,51.45
2016-09-25T05:44:29.020Z,51.65
2016-09-25T05:45:09.764Z,51.45
2016-09-25T05:45:50.540Z,51.35
2016-09-25T05:46:31.284Z,51.45
2016-09-25T05:47:11.948Z,51.45
2016-09-25T05:47:52.685Z,51.45
2016-09-25T05:48:33.430Z,51.45
2016-09-25T05:49:14.139Z,51.55
2016-09-25T05:49:54.859Z,51.55
2016-09-25T05:50:35.597Z,51.35
2016-09-25T05:51:16.349Z,51.45
2016-09-25T05:51:57.055Z,51.45
2016-09-25T05:52:37.775Z,51.45
2016-09-25T05:53:18.529Z,51.55
2016-09-25T05:53:59.166Z,51.65
2016-09-25T05:54:39.947Z,51.35
2016-09-25T05:55:20.687Z,51.35
2016-09-25T05:56:01.364Z,51.45
2016-09-25T05:56:42.127Z,51.35
2016-09-25T05:57:22.837Z,51.35
2016-09-25T05:58:03.609Z,51.45
2016-09-25T05:58:44.350Z,51.55
2016-09-25T05:59:25.129Z,51.45
2016-09-25T06:00:05.907Z,51.16
2016-09-25T06:00:46.644Z,51.35
2016-09-25T06:01:27.412Z,51.45
2016-09-25T06:02:08.161Z,51.35
2016-09-25T06:02:49.804Z,51.65
2016-09-25T06:03:30.561Z,51.16
2016-09-25T06:04:11.305Z,51.45
2016-09-25T06:04:52.044Z,51.06
2016-09-25T06:05:32.741Z,51.65
2016-09-25T06:06:13.447Z,51.16
2016-09-25T06:06:54.166Z,51.65
2016-09-25T06:07:34.928Z,51.45
2016-09-25T06:08:15.594Z,51.45
2016-09-25T06:08:56.358Z,51.65
2016-09-25T06:09:37.091Z,51.75
2016-09-25T06:10:17.894Z,51.35
2016-09-25T06:10:58.666Z,51.26
2016-09-25T06:11:39.396Z,51.35
2016-09-25T06:12:20.194Z,51.26
2016-09-25T06:13:00.923Z,51.26
2016-09-25T06:13:41.665Z,51.16
2016-09-25T06:14:22.366Z,51.16
2016-09-25T06:15:03.129Z,51.16
2016-09-25T06:15:43.860Z,51.26
2016-09-25T06:16:24.579Z,50.96
2016-09-25T06:17:05.337Z,51.06
2016-09-25T06:17:46.047Z,51.45
2016-09-25T06:18:26.817Z,51.45
2016-09-25T06:19:07.493Z,51.16
2016-09-25T06:19:48.254Z,51.35
2016-09-25T06:20:28.954Z,51.16
2016-09-25T06:21:09.689Z,51.35
2016-09-25T06:21:50.389Z,51.35
2016-09-25T06:22:31.115Z,51.16
2016-09-25T06:23:11.922Z,51.45
2016-09-25T06:23:52.674Z,51.26
2016-09-25T06:24:33.395Z,51.45
2016-09-25T06:25:14.135Z,51.26
2016-09-25T06:25:54.934Z,51.35
2016-09-25T06:26:35.700Z,51.35
2016-09-25T06:27:16.425Z,51.26
2016-09-25T06:27:57.205Z,51.35
2016-09-25T06:28:37.934Z,51.45
2016-09-25T06:29:18.650Z,51.45
2016-09-25T06:29:59.330Z,51.35
2016-09-25T06:30:40.039Z,51.45
2016-09-25T06:31:20.733Z,51.16
2016-09-25T06:32:01.443Z,51.45
2016-09-25T06:32:42.237Z,51.35
2016-09-25T06:33:22.971Z,51.16
2016-09-25T06:34:03.714Z,51.45
2016-09-25T06:34:44.485Z,51.75
2016-09-25T06:35:25.258Z,51.75
2016-09-25T06:36:05.966Z,51.35
2016-09-25T06:36:46.705Z,51.06
2016-09-25T06:37:27.479Z,51.06
2016-09-25T06:38:08.208Z,51.16
2016-09-25T06:38:48.929Z,51.35
2016-09-25T06:39:29.658Z,51.35
2016-09-25T06:40:10.411Z,51.45
2016-09-25T06:40:51.168Z,51.45
2016-09-25T06:41:31.922Z,51.55
2016-09-25T06:42:12.660Z,51.35
2016-09-25T06:42:53.431Z,51.06
2016-09-25T06:43:34.137Z,51.35
2016-09-25T06:44:14.901Z,51.45
2016-09-25T06:44:55.621Z,51.35
2016-09-25T06:45:36.391Z,51.35
2016-09-25T06:46:17.169Z,51.35
2016-09-25T06:46:57.918Z,51.26
2016-09-25T06:47:38.723Z,51.45
2016-09-25T06:48:19.504Z,51.06
2016-09-25T06:49:00.214Z,51.45
2016-09-25T06:49:40.938Z,51.35
2016-09-25T06:50:21.671Z,51.06
2016-09-25T06:51:02.406Z,51.35
2016-09-25T06:51:43.199Z,51.45
2016-09-25T06:52:23.958Z,51.55
2016-09-25T06:53:04.688Z,51.16
2016-09-25T06:53:45.393Z,51.55
2016-09-25T06:54:26.133Z,51.45
2016-09-25T06:55:06.856Z,51.55
2016-09-25T06:55:47.606Z,51.55
2016-09-25T06:56:28.329Z,51.55
2016-09-25T06:57:09.043Z,51.45
2016-09-25T06:57:49.820Z,51.16
2016-09-25T06:58:30.607Z,51.55
2016-09-25T06:59:11.400Z,51.55
2016-09-25T06:59:52.166Z,51.35
2016-09-25T07:00:32.916Z,51.35
2016-09-25T07:01:13.603Z,51.55
2016-09-25T07:01:54.288Z,51.75
2016-09-25T07:02:35.012Z,51.65
2016-09-25T07:03:15.767Z,51.65
2016-09-25T07:03:56.541Z,51.65
2016-09-25T07:04:37.283Z,51.55
2016-09-25T07:05:18.099Z,51.55
2016-09-25T07:05:59.044Z,51.45
2016-09-25T07:06:39.936Z,51.55
2016-09-25T07:07:20.682Z,51.45
2016-09-25T07:08:01.406Z,50.87
2016-09-25T07:08:42.165Z,51.26
2016-09-25T07:09:22.904Z,51.45
2016-09-25T07:10:03.685Z,51.16
2016-09-25T07:10:44.412Z,51.65
2016-09-25T07:11:25.137Z,50.96
2016-09-25T07:12:05.894Z,51.26
2016-09-25T07:12:46.609Z,51.26
2016-09-25T07:13:27.353Z,51.16
2016-09-25T07:14:08.149Z,51.06
2016-09-25T07:14:48.872Z,51.35
2016-09-25T07:15:29.561Z,51.06
2016-09-25T07:16:10.329Z,51.26
2016-09-25T07:16:51.098Z,51.26
2016-09-25T07:17:31.855Z,51.26
2016-09-25T07:18:12.614Z,51.26
2016-09-25T07:18:53.363Z,51.26
2016-09-25T07:19:34.092Z,51.26
2016-09-25T07:20:14.868Z,51.06
2016-09-25T07:20:55.529Z,51.35
2016-09-25T07:21:36.282Z,50.96
2016-09-25T07:22:17.039Z,51.45
2016-09-25T07:22:57.743Z,50.96
2016-09-25T07:23:38.455Z,51.45
2016-09-25T07:24:19.212Z,51.55
2016-09-25T07:24:59.915Z,50.96
2016-09-25T07:25:40.685Z,51.45
2016-09-25T07:26:21.457Z,51.45
2016-09-25T07:27:02.144Z,50.68
2016-09-25T07:27:42.898Z,51.55
2016-09-25T07:28:23.656Z,51.35
2016-09-25T07:29:04.411Z,51.55
2016-09-25T07:29:45.246Z,51.06
2016-09-25T07:30:26.034Z,51.09
2016-09-25T07:31:06.747Z,51.06
2016-09-25T07:31:47.544Z,51.65
2016-09-25T07:32:28.288Z,51.55
2016-09-25T07:33:09.105Z,51.38
2016-09-25T07:33:49.848Z,51.77
2016-09-25T07:34:30.594Z,51.67
2016-09-25T07:35:11.299Z,51.16
2016-09-25T07:35:52.003Z,51.45
2016-09-25T07:36:32.776Z,51.55
2016-09-25T07:37:13.555Z,51.65
2016-09-25T07:37:54.264Z,51.06
2016-09-25T07:38:35.033Z,50.96
2016-09-25T07:39:15.770Z,51.57
2016-09-25T07:39:56.523Z,50.99
2016-09-25T07:40:37.250Z,51.55
2016-09-25T07:41:17.977Z,51.18
2016-09-25T07:41:58.738Z,51.09
2016-09-25T07:42:39.631Z,50.87
2016-09-25T07:43:20.375Z,50.87
2016-09-25T07:44:01.112Z,51.38
2016-09-25T07:44:41.771Z,51.16
2016-09-25T07:45:22.580Z,51.06
2016-09-25T07:46:03.323Z,51.06
2016-09-25T07:46:44.027Z,51.48
2016-09-25T07:47:24.742Z,51.26
2016-09-25T07:48:05.509Z,51.18
2016-09-25T07:48:46.272Z,51.28
2016-09-25T07:49:27.051Z,51.18
2016-09-25T07:50:07.829Z,50.99
2016-09-25T07:50:48.554Z,51.09
2016-09-25T07:51:29.269Z,51.18
2016-09-25T07:52:10.040Z,51.06
2016-09-25T07:52:50.792Z,50.99
2016-09-25T07:53:31.494Z,51.57
2016-09-25T07:54:12.206Z,51.18
2016-09-25T07:54:52.928Z,51.09
2016-09-25T07:55:33.682Z,51.06
2016-09-25T07:56:14.458Z,51.16
2016-09-25T07:56:55.224Z,50.99
2016-09-25T07:57:35.937Z,51.18
2016-09-25T07:58:16.691Z,51.18
2016-09-25T07:58:57.419Z,51.18
2016-09-25T07:59:38.158Z,51.18
2016-09-25T08:00:18.893Z,51.18
2016-09-25T08:00:59.653Z,51.09
2016-09-25T08:01:40.414Z,51.09
2016-09-25T08:02:21.097Z,50.99
2016-09-25T08:03:01.842Z,51.09
2016-09-25T08:03:42.586Z,50.99
2016-09-25T08:04:23.353Z,51.18
2016-09-25T08:05:04.105Z,51.18
2016-09-25T08:05:44.917Z,50.99
2016-09-25T08:06:25.704Z,50.99
2016-09-25T08:07:06.341Z,51.18
2016-09-25T08:07:47.188Z,51.16
2016-09-25T08:08:27.908Z,51.06
2016-09-25T08:09:08.575Z,51.18
2016-09-25T08:09:49.295Z,51.09
2016-09-25T08:10:30.046Z,50.96
2016-09-25T08:11:10.811Z,51.09
2016-09-25T08:11:51.579Z,51.16
2016-09-25T08:12:32.312Z,51.09
2016-09-25T08:13:13.008Z,51.18
2016-09-25T08:13:53.730Z,51.09
2016-09-25T08:14:34.435Z,50.99
2016-09-25T08:15:15.191Z,50.99
2016-09-25T08:15:55.901Z,51.18
2016-09-25T08:16:36.630Z,51.09
2016-09-25T08:17:17.333Z,51.09
2016-09-25T08:17:58.101Z,51.18
2016-09-25T08:18:38.851Z,51.18
2016-09-25T08:19:19.645Z,50.8
2016-09-25T08:20:00.378Z,50.89
2016-09-25T08:20:41.135Z,50.99
2016-09-25T08:21:21.909Z,51.18
2016-09-25T08:22:02.636Z,50.89
2016-09-25T08:22:43.343Z,50.8
2016-09-25T08:23:24.113Z,50.89
2016-09-25T08:24:04.869Z,51.09
2016-09-25T08:24:45.629Z,50.99
2016-09-25T08:25:26.382Z,50.8
2016-09-25T08:26:07.084Z,50.89
2016-09-25T08:26:47.839Z,50.8
2016-09-25T08:27:28.547Z,50.89
2016-09-25T08:28:09.296Z,50.8
2016-09-25T08:28:49.991Z,50.6
2016-09-25T08:29:30.727Z,50.7
2016-09-25T08:30:11.460Z,50.6
2016-09-25T08:30:52.293Z,50.7
2016-09-25T08:31:33.015Z,50.7
2016-09-25T08:32:13.738Z,50.7
2016-09-25T08:32:54.431Z,50.7
2016-09-25T08:33:35.136Z,50.51
2016-09-25T08:34:15.922Z,50.6
2016-09-25T08:34:56.666Z,50.89
2016-09-25T08:35:37.432Z,50.6
2016-09-25T08:36:18.150Z,50.89
2016-09-25T08:36:58.864Z,50.89
2016-09-25T08:37:39.618Z,50.8
2016-09-25T08:38:20.389Z,50.7
2016-09-25T08:39:01.145Z,50.6
2016-09-25T08:39:41.916Z,50.7
2016-09-25T08:40:22.672Z,50.51
2016-09-25T08:41:03.386Z,50.51
2016-09-25T08:41:44.161Z,50.51
2016-09-25T08:42:24.935Z,50.6
2016-09-25T08:43:05.713Z,50.6
2016-09-25T08:43:46.458Z,50.6
2016-09-25T08:44:27.180Z,50.7
2016-09-25T08:45:07.911Z,50.6